sensor_id;sensor_type;location;lat;lon;timestamp;pressure;altitude;pressure_sealevel;temperature;humidity
57114;BME280;42994;51.606;9.988;2023-08-30T00:00:55;98556.94;;;11.16;100.00
57114;BME280;42994;51.606;9.988;2023-08-30T00:03:22;98545.59;;;11.28;100.00
57114;BME280;42994;51.606;9.988;2023-08-30T00:05:48;98544.59;;;11.15;100.00
57114;BME280;42994;51.606;9.988;2023-08-30T00:08:15;98540.66;;;11.11;100.00
57114;BME280;42994;51.606;9.988;2023-08-30T00:10:44;98546.22;;;11.16;100.00
57114;BME280;42994;51.606;9.988;2023-08-30T00:13:12;98550.97;;;11.14;100.00
57114;BME280;42994;51.606;9.988;2023-08-30T00:15:38;98548.50;;;11.13;100.00
57114;BME280;42994;51.606;9.988;2023-08-30T00:18:05;98547.66;;;11.06;100.00
57114;BME280;42994;51.606;9.988;2023-08-30T00:20:32;98549.31;;;11.00;100.00
57114;BME280;42994;51.606;9.988;2023-08-30T00:22:59;98553.97;;;10.45;100.00
57114;BME280;42994;51.606;9.988;2023-08-30T00:25:26;98562.06;;;10.10;100.00
57114;BME280;42994;51.606;9.988;2023-08-30T00:27:52;98572.56;;;10.60;100.00
57114;BME280;42994;51.606;9.988;2023-08-30T00:30:20;98583.72;;;10.70;100.00
57114;BME280;42994;51.606;9.988;2023-08-30T00:32:47;98568.25;;;10.65;100.00
57114;BME280;42994;51.606;9.988;2023-08-30T00:35:14;98566.81;;;10.76;100.00
57114;BME280;42994;51.606;9.988;2023-08-30T00:37:41;98560.25;;;10.85;100.00
57114;BME280;42994;51.606;9.988;2023-08-30T00:40:08;98561.88;;;10.80;100.00
57114;BME280;42994;51.606;9.988;2023-08-30T00:42:36;98560.03;;;10.80;100.00
57114;BME280;42994;51.606;9.988;2023-08-30T00:45:03;98567.25;;;10.80;100.00
57114;BME280;42994;51.606;9.988;2023-08-30T00:47:33;98564.38;;;10.81;100.00
57114;BME280;42994;51.606;9.988;2023-08-30T00:50:00;98565.38;;;10.80;100.00
57114;BME280;42994;51.606;9.988;2023-08-30T00:52:27;98569.28;;;10.64;100.00
57114;BME280;42994;51.606;9.988;2023-08-30T00:54:54;98570.94;;;10.72;100.00
57114;BME280;42994;51.606;9.988;2023-08-30T00:57:21;98571.97;;;10.71;100.00
57114;BME280;42994;51.606;9.988;2023-08-30T00:59:49;98565.38;;;10.67;100.00
57114;BME280;42994;51.606;9.988;2023-08-30T01:02:17;98561.84;;;10.60;100.00
57114;BME280;42994;51.606;9.988;2023-08-30T01:04:46;98565.16;;;10.62;100.00
57114;BME280;42994;51.606;9.988;2023-08-30T01:07:13;98554.00;;;10.58;100.00
57114;BME280;42994;51.606;9.988;2023-08-30T01:09:40;98550.25;;;10.39;100.00
57114;BME280;42994;51.606;9.988;2023-08-30T01:12:10;98554.13;;;10.30;100.00
57114;BME280;42994;51.606;9.988;2023-08-30T01:14:43;98555.41;;;10.41;100.00
57114;BME280;42994;51.606;9.988;2023-08-30T01:17:11;98557.56;;;10.24;100.00
57114;BME280;42994;51.606;9.988;2023-08-30T01:19:48;98556.81;;;10.36;100.00
57114;BME280;42994;51.606;9.988;2023-08-30T01:22:21;98555.22;;;10.49;100.00
57114;BME280;42994;51.606;9.988;2023-08-30T01:25:03;98551.50;;;10.43;100.00
57114;BME280;42994;51.606;9.988;2023-08-30T01:27:37;98546.38;;;10.48;100.00
57114;BME280;42994;51.606;9.988;2023-08-30T01:30:06;98537.09;;;10.44;100.00
57114;BME280;42994;51.606;9.988;2023-08-30T01:32:35;98546.13;;;10.43;100.00
57114;BME280;42994;51.606;9.988;2023-08-30T01:35:04;98545.31;;;10.43;100.00
57114;BME280;42994;51.606;9.988;2023-08-30T01:37:32;98550.69;;;10.43;100.00
57114;BME280;42994;51.606;9.988;2023-08-30T01:39:59;98545.66;;;10.26;100.00
57114;BME280;42994;51.606;9.988;2023-08-30T01:42:29;98551.03;;;10.33;100.00
57114;BME280;42994;51.606;9.988;2023-08-30T01:44:58;98548.41;;;10.39;100.00
57114;BME280;42994;51.606;9.988;2023-08-30T01:47:27;98554.38;;;10.42;100.00
57114;BME280;42994;51.606;9.988;2023-08-30T01:49:55;98552.25;;;10.30;100.00
57114;BME280;42994;51.606;9.988;2023-08-30T01:52:23;98561.94;;;10.25;100.00
57114;BME280;42994;51.606;9.988;2023-08-30T01:54:51;98553.25;;;10.23;100.00
57114;BME280;42994;51.606;9.988;2023-08-30T01:57:18;98550.03;;;9.86;100.00
57114;BME280;42994;51.606;9.988;2023-08-30T01:59:45;98553.41;;;10.08;100.00
57114;BME280;42994;51.606;9.988;2023-08-30T02:02:13;98545.50;;;9.93;100.00
57114;BME280;42994;51.606;9.988;2023-08-30T02:04:39;98551.09;;;9.98;100.00
57114;BME280;42994;51.606;9.988;2023-08-30T02:07:11;98543.44;;;9.88;100.00
57114;BME280;42994;51.606;9.988;2023-08-30T02:09:41;98549.22;;;9.92;100.00
57114;BME280;42994;51.606;9.988;2023-08-30T02:12:13;98542.00;;;9.86;100.00
57114;BME280;42994;51.606;9.988;2023-08-30T02:14:41;98540.00;;;10.01;100.00
57114;BME280;42994;51.606;9.988;2023-08-30T02:17:13;98538.13;;;10.01;100.00
57114;BME280;42994;51.606;9.988;2023-08-30T02:19:41;98542.03;;;9.99;100.00
57114;BME280;42994;51.606;9.988;2023-08-30T02:22:08;98539.59;;;10.04;100.00
57114;BME280;42994;51.606;9.988;2023-08-30T02:24:35;98547.63;;;10.04;100.00
57114;BME280;42994;51.606;9.988;2023-08-30T02:27:02;98544.28;;;9.95;100.00
57114;BME280;42994;51.606;9.988;2023-08-30T02:29:29;98538.56;;;9.98;100.00
57114;BME280;42994;51.606;9.988;2023-08-30T02:31:56;98541.22;;;9.98;100.00
57114;BME280;42994;51.606;9.988;2023-08-30T02:34:24;98537.88;;;9.90;100.00
57114;BME280;42994;51.606;9.988;2023-08-30T02:36:51;98531.06;;;9.87;100.00
57114;BME280;42994;51.606;9.988;2023-08-30T02:39:18;98539.94;;;9.88;100.00
57114;BME280;42994;51.606;9.988;2023-08-30T02:41:45;98534.69;;;9.73;100.00
57114;BME280;42994;51.606;9.988;2023-08-30T02:44:11;98549.44;;;9.55;100.00
57114;BME280;42994;51.606;9.988;2023-08-30T02:46:38;98547.00;;;9.67;100.00
57114;BME280;42994;51.606;9.988;2023-08-30T02:49:05;98555.72;;;9.76;100.00
57114;BME280;42994;51.606;9.988;2023-08-30T02:51:33;98557.81;;;9.80;100.00
57114;BME280;42994;51.606;9.988;2023-08-30T02:54:00;98555.09;;;9.74;100.00
57114;BME280;42994;51.606;9.988;2023-08-30T02:56:26;98559.06;;;9.85;100.00
57114;BME280;42994;51.606;9.988;2023-08-30T02:58:53;98560.50;;;9.80;100.00
57114;BME280;42994;51.606;9.988;2023-08-30T03:01:20;98555.75;;;9.82;100.00
57114;BME280;42994;51.606;9.988;2023-08-30T03:03:48;98544.81;;;9.42;100.00
57114;BME280;42994;51.606;9.988;2023-08-30T03:06:16;98564.66;;;9.55;100.00
57114;BME280;42994;51.606;9.988;2023-08-30T03:08:44;98561.56;;;9.58;100.00
57114;BME280;42994;51.606;9.988;2023-08-30T03:11:11;98556.84;;;9.60;100.00
57114;BME280;42994;51.606;9.988;2023-08-30T03:13:45;98546.59;;;9.63;100.00
57114;BME280;42994;51.606;9.988;2023-08-30T03:16:12;98544.00;;;9.42;100.00
57114;BME280;42994;51.606;9.988;2023-08-30T03:18:39;98545.72;;;9.56;100.00
57114;BME280;42994;51.606;9.988;2023-08-30T03:21:06;98535.66;;;9.58;100.00
57114;BME280;42994;51.606;9.988;2023-08-30T03:23:34;98525.16;;;9.57;100.00
57114;BME280;42994;51.606;9.988;2023-08-30T03:26:08;98530.69;;;9.55;100.00
57114;BME280;42994;51.606;9.988;2023-08-30T03:28:35;98520.19;;;9.54;100.00
57114;BME280;42994;51.606;9.988;2023-08-30T03:31:02;98517.88;;;9.44;100.00
57114;BME280;42994;51.606;9.988;2023-08-30T03:33:29;98519.63;;;9.30;100.00
57114;BME280;42994;51.606;9.988;2023-08-30T03:35:58;98526.03;;;9.29;100.00
57114;BME280;42994;51.606;9.988;2023-08-30T03:38:24;98529.16;;;9.39;100.00
57114;BME280;42994;51.606;9.988;2023-08-30T03:40:53;98528.34;;;9.39;100.00
57114;BME280;42994;51.606;9.988;2023-08-30T03:43:21;98523.81;;;9.39;100.00
57114;BME280;42994;51.606;9.988;2023-08-30T03:45:48;98521.13;;;9.39;100.00
57114;BME280;42994;51.606;9.988;2023-08-30T03:48:15;98523.81;;;9.39;100.00
57114;BME280;42994;51.606;9.988;2023-08-30T03:50:41;98516.03;;;9.45;100.00
57114;BME280;42994;51.606;9.988;2023-08-30T03:53:08;98520.78;;;9.49;100.00
57114;BME280;42994;51.606;9.988;2023-08-30T03:55:34;98516.81;;;9.38;100.00
57114;BME280;42994;51.606;9.988;2023-08-30T03:58:01;98517.78;;;9.31;100.00
57114;BME280;42994;51.606;9.988;2023-08-30T04:00:29;98517.16;;;9.29;100.00
57114;BME280;42994;51.606;9.988;2023-08-30T04:02:56;98583.19;;;9.00;100.00
57114;BME280;42994;51.606;9.988;2023-08-30T04:05:23;98532.31;;;9.21;100.00
57114;BME280;42994;51.606;9.988;2023-08-30T04:07:49;98520.72;;;9.08;100.00
57114;BME280;42994;51.606;9.988;2023-08-30T04:10:16;98532.38;;;9.00;100.00
57114;BME280;42994;51.606;9.988;2023-08-30T04:12:43;98517.44;;;9.12;100.00
57114;BME280;42994;51.606;9.988;2023-08-30T04:15:10;98516.44;;;9.13;100.00
57114;BME280;42994;51.606;9.988;2023-08-30T04:17:40;98528.56;;;9.16;100.00
57114;BME280;42994;51.606;9.988;2023-08-30T04:20:07;98521.44;;;9.23;100.00
57114;BME280;42994;51.606;9.988;2023-08-30T04:22:35;98519.75;;;9.15;100.00
57114;BME280;42994;51.606;9.988;2023-08-30T04:25:03;98514.53;;;9.07;100.00
57114;BME280;42994;51.606;9.988;2023-08-30T04:27:30;98515.47;;;8.93;100.00
57114;BME280;42994;51.606;9.988;2023-08-30T04:29:57;98518.19;;;8.78;100.00
57114;BME280;42994;51.606;9.988;2023-08-30T04:32:23;98507.84;;;8.68;100.00
57114;BME280;42994;51.606;9.988;2023-08-30T04:34:51;98521.09;;;8.76;100.00
57114;BME280;42994;51.606;9.988;2023-08-30T04:37:18;98521.13;;;8.61;100.00
57114;BME280;42994;51.606;9.988;2023-08-30T04:39:47;98529.03;;;8.70;100.00
57114;BME280;42994;51.606;9.988;2023-08-30T04:42:13;98527.88;;;8.79;100.00
57114;BME280;42994;51.606;9.988;2023-08-30T04:44:40;98521.38;;;8.88;100.00
57114;BME280;42994;51.606;9.988;2023-08-30T04:47:07;98520.41;;;8.96;100.00
57114;BME280;42994;51.606;9.988;2023-08-30T04:49:34;98523.50;;;8.99;100.00
57114;BME280;42994;51.606;9.988;2023-08-30T04:52:04;98517.78;;;9.02;100.00
57114;BME280;42994;51.606;9.988;2023-08-30T04:54:31;98516.13;;;9.01;100.00
57114;BME280;42994;51.606;9.988;2023-08-30T04:56:58;98527.31;;;9.12;100.00
57114;BME280;42994;51.606;9.988;2023-08-30T04:59:25;98525.31;;;8.92;100.00
57114;BME280;42994;51.606;9.988;2023-08-30T05:01:51;98531.63;;;8.84;100.00
57114;BME280;42994;51.606;9.988;2023-08-30T05:04:21;98538.94;;;8.76;100.00
57114;BME280;42994;51.606;9.988;2023-08-30T05:06:47;98548.25;;;8.58;100.00
57114;BME280;42994;51.606;9.988;2023-08-30T05:09:16;98567.22;;;8.63;100.00
57114;BME280;42994;51.606;9.988;2023-08-30T05:11:43;98577.13;;;8.70;100.00
57114;BME280;42994;51.606;9.988;2023-08-30T05:14:10;98587.03;;;8.97;100.00
57114;BME280;42994;51.606;9.988;2023-08-30T05:16:39;98574.66;;;9.18;100.00
57114;BME280;42994;51.606;9.988;2023-08-30T05:19:06;98564.28;;;9.30;100.00
57114;BME280;42994;51.606;9.988;2023-08-30T05:21:32;98558.19;;;9.42;100.00
57114;BME280;42994;51.606;9.988;2023-08-30T05:23:59;98568.22;;;9.62;100.00
57114;BME280;42994;51.606;9.988;2023-08-30T05:26:27;98544.13;;;9.62;100.00
57114;BME280;42994;51.606;9.988;2023-08-30T05:28:54;98543.91;;;9.63;100.00
57114;BME280;42994;51.606;9.988;2023-08-30T05:31:21;98541.13;;;9.78;100.00
57114;BME280;42994;51.606;9.988;2023-08-30T05:33:58;98551.66;;;9.87;100.00
57114;BME280;42994;51.606;9.988;2023-08-30T05:36:44;98558.44;;;9.82;100.00
57114;BME280;42994;51.606;9.988;2023-08-30T05:39:19;98566.66;;;9.81;100.00
57114;BME280;42994;51.606;9.988;2023-08-30T05:41:51;98583.22;;;9.98;100.00
57114;BME280;42994;51.606;9.988;2023-08-30T05:44:17;98578.72;;;10.05;100.00
57114;BME280;42994;51.606;9.988;2023-08-30T05:46:44;98584.25;;;10.38;100.00
57114;BME280;42994;51.606;9.988;2023-08-30T05:49:11;98585.69;;;10.34;100.00
57114;BME280;42994;51.606;9.988;2023-08-30T05:51:37;98597.25;;;10.35;100.00
57114;BME280;42994;51.606;9.988;2023-08-30T05:54:04;98615.72;;;10.30;100.00
57114;BME280;42994;51.606;9.988;2023-08-30T05:56:31;98618.03;;;10.33;100.00
57114;BME280;42994;51.606;9.988;2023-08-30T05:59:00;98622.19;;;10.42;100.00
57114;BME280;42994;51.606;9.988;2023-08-30T06:01:27;98630.69;;;10.52;100.00
57114;BME280;42994;51.606;9.988;2023-08-30T06:03:53;98657.66;;;10.51;100.00
57114;BME280;42994;51.606;9.988;2023-08-30T06:06:20;98660.13;;;10.46;100.00
57114;BME280;42994;51.606;9.988;2023-08-30T06:08:47;98663.03;;;10.51;100.00
57114;BME280;42994;51.606;9.988;2023-08-30T06:11:13;98652.34;;;10.57;100.00
57114;BME280;42994;51.606;9.988;2023-08-30T06:13:40;98665.13;;;10.55;100.00
57114;BME280;42994;51.606;9.988;2023-08-30T06:16:08;98667.19;;;10.60;100.00
57114;BME280;42994;51.606;9.988;2023-08-30T06:18:35;98670.94;;;10.72;100.00
57114;BME280;42994;51.606;9.988;2023-08-30T06:21:02;98671.84;;;10.93;100.00
57114;BME280;42994;51.606;9.988;2023-08-30T06:23:29;98660.88;;;10.88;100.00
57114;BME280;42994;51.606;9.988;2023-08-30T06:25:56;98652.28;;;10.99;100.00
57114;BME280;42994;51.606;9.988;2023-08-30T06:28:24;98667.75;;;11.04;100.00
57114;BME280;42994;51.606;9.988;2023-08-30T06:30:50;98670.25;;;11.12;100.00
57114;BME280;42994;51.606;9.988;2023-08-30T06:33:18;98673.13;;;11.24;100.00
57114;BME280;42994;51.606;9.988;2023-08-30T06:35:47;98660.56;;;11.31;100.00
57114;BME280;42994;51.606;9.988;2023-08-30T06:38:14;98667.59;;;11.45;100.00
57114;BME280;42994;51.606;9.988;2023-08-30T06:40:43;98665.13;;;11.44;100.00
57114;BME280;42994;51.606;9.988;2023-08-30T06:43:10;98666.34;;;11.48;100.00
57114;BME280;42994;51.606;9.988;2023-08-30T06:45:37;98682.88;;;11.51;100.00
57114;BME280;42994;51.606;9.988;2023-08-30T06:48:05;98691.16;;;11.63;100.00
57114;BME280;42994;51.606;9.988;2023-08-30T06:50:33;98694.47;;;11.92;100.00
57114;BME280;42994;51.606;9.988;2023-08-30T06:53:00;98707.25;;;11.97;100.00
57114;BME280;42994;51.606;9.988;2023-08-30T06:55:26;98678.56;;;11.90;100.00
57114;BME280;42994;51.606;9.988;2023-08-30T06:57:53;98687.03;;;11.94;100.00
57114;BME280;42994;51.606;9.988;2023-08-30T07:00:20;98693.00;;;12.03;100.00
57114;BME280;42994;51.606;9.988;2023-08-30T07:02:46;98693.16;;;12.35;100.00
57114;BME280;42994;51.606;9.988;2023-08-30T07:05:13;98707.19;;;12.43;100.00
57114;BME280;42994;51.606;9.988;2023-08-30T07:07:41;98694.56;;;12.37;100.00
57114;BME280;42994;51.606;9.988;2023-08-30T07:10:09;98696.00;;;12.46;100.00
57114;BME280;42994;51.606;9.988;2023-08-30T07:12:35;98685.69;;;12.43;100.00
57114;BME280;42994;51.606;9.988;2023-08-30T07:15:02;98688.31;;;12.57;100.00
57114;BME280;42994;51.606;9.988;2023-08-30T07:17:29;98677.75;;;12.62;100.00
57114;BME280;42994;51.606;9.988;2023-08-30T07:19:56;98676.47;;;12.71;100.00
57114;BME280;42994;51.606;9.988;2023-08-30T07:22:22;98662.78;;;12.79;100.00
57114;BME280;42994;51.606;9.988;2023-08-30T07:24:51;98655.78;;;12.72;100.00
57114;BME280;42994;51.606;9.988;2023-08-30T07:27:17;98654.56;;;12.67;100.00
57114;BME280;42994;51.606;9.988;2023-08-30T07:29:44;98644.72;;;12.86;100.00
57114;BME280;42994;51.606;9.988;2023-08-30T07:32:10;98642.31;;;13.10;100.00
57114;BME280;42994;51.606;9.988;2023-08-30T07:34:37;98629.06;;;13.08;100.00
57114;BME280;42994;51.606;9.988;2023-08-30T07:37:04;98637.38;;;13.39;100.00
57114;BME280;42994;51.606;9.988;2023-08-30T07:39:30;98622.44;;;13.43;100.00
57114;BME280;42994;51.606;9.988;2023-08-30T07:41:58;98609.13;;;13.73;100.00
57114;BME280;42994;51.606;9.988;2023-08-30T07:44:25;98613.41;;;13.81;100.00
57114;BME280;42994;51.606;9.988;2023-08-30T07:46:51;98617.94;;;14.06;100.00
57114;BME280;42994;51.606;9.988;2023-08-30T07:49:18;98603.41;;;14.07;100.00
57114;BME280;42994;51.606;9.988;2023-08-30T07:51:44;98574.19;;;14.40;100.00
57114;BME280;42994;51.606;9.988;2023-08-30T07:54:11;98539.06;;;14.29;100.00
57114;BME280;42994;51.606;9.988;2023-08-30T07:56:38;98531.63;;;14.42;100.00
57114;BME280;42994;51.606;9.988;2023-08-30T07:59:06;98526.28;;;14.54;100.00
57114;BME280;42994;51.606;9.988;2023-08-30T08:01:32;98523.16;;;14.69;100.00
57114;BME280;42994;51.606;9.988;2023-08-30T08:03:59;98522.41;;;14.92;100.00
57114;BME280;42994;51.606;9.988;2023-08-30T08:06:26;98517.06;;;15.04;100.00
57114;BME280;42994;51.606;9.988;2023-08-30T08:08:52;98494.25;;;15.00;100.00
57114;BME280;42994;51.606;9.988;2023-08-30T08:11:19;98502.75;;;15.15;100.00
57114;BME280;42994;51.606;9.988;2023-08-30T08:13:45;98496.63;;;15.08;100.00
57114;BME280;42994;51.606;9.988;2023-08-30T08:16:13;98486.78;;;15.14;100.00
57114;BME280;42994;51.606;9.988;2023-08-30T08:18:40;98483.34;;;15.18;100.00
57114;BME280;42994;51.606;9.988;2023-08-30T08:21:07;98477.50;;;15.22;100.00
57114;BME280;42994;51.606;9.988;2023-08-30T08:23:33;98473.03;;;15.39;100.00
57114;BME280;42994;51.606;9.988;2023-08-30T08:26:00;98466.09;;;15.43;100.00
57114;BME280;42994;51.606;9.988;2023-08-30T08:28:28;98471.38;;;15.50;100.00
57114;BME280;42994;51.606;9.988;2023-08-30T08:30:54;98463.38;;;15.55;100.00
57114;BME280;42994;51.606;9.988;2023-08-30T08:33:22;98462.09;;;15.57;100.00
57114;BME280;42994;51.606;9.988;2023-08-30T08:35:49;98456.00;;;15.50;100.00
57114;BME280;42994;51.606;9.988;2023-08-30T08:38:16;98444.59;;;15.48;100.00
57114;BME280;42994;51.606;9.988;2023-08-30T08:40:43;98443.19;;;15.46;100.00
57114;BME280;42994;51.606;9.988;2023-08-30T08:43:10;98438.72;;;15.51;100.00
57114;BME280;42994;51.606;9.988;2023-08-30T08:45:37;98439.50;;;15.64;100.00
57114;BME280;42994;51.606;9.988;2023-08-30T08:48:05;98458.88;;;15.84;100.00
57114;BME280;42994;51.606;9.988;2023-08-30T08:50:33;98467.56;;;16.27;100.00
57114;BME280;42994;51.606;9.988;2023-08-30T08:53:01;98453.72;;;16.40;100.00
57114;BME280;42994;51.606;9.988;2023-08-30T08:55:29;98458.25;;;16.51;100.00
57114;BME280;42994;51.606;9.988;2023-08-30T08:57:57;98452.44;;;16.60;100.00
57114;BME280;42994;51.606;9.988;2023-08-30T09:00:24;98438.97;;;16.02;100.00
57114;BME280;42994;51.606;9.988;2023-08-30T09:02:53;98452.13;;;16.27;100.00
57114;BME280;42994;51.606;9.988;2023-08-30T09:05:20;98457.66;;;16.32;100.00
57114;BME280;42994;51.606;9.988;2023-08-30T09:07:49;98428.88;;;15.98;100.00
57114;BME280;42994;51.606;9.988;2023-08-30T09:10:20;98442.97;;;16.28;100.00
57114;BME280;42994;51.606;9.988;2023-08-30T09:12:46;98449.78;;;16.31;100.00
57114;BME280;42994;51.606;9.988;2023-08-30T09:15:13;98443.44;;;16.25;100.00
57114;BME280;42994;51.606;9.988;2023-08-30T09:17:40;98447.13;;;16.65;100.00
57114;BME280;42994;51.606;9.988;2023-08-30T09:20:08;98467.16;;;17.15;100.00
57114;BME280;42994;51.606;9.988;2023-08-30T09:22:36;98454.75;;;17.19;100.00
57114;BME280;42994;51.606;9.988;2023-08-30T09:25:06;98444.88;;;16.45;100.00
57114;BME280;42994;51.606;9.988;2023-08-30T09:27:32;98444.38;;;16.48;100.00
57114;BME280;42994;51.606;9.988;2023-08-30T09:29:59;98448.59;;;16.56;100.00
57114;BME280;42994;51.606;9.988;2023-08-30T09:32:26;98470.19;;;17.18;100.00
57114;BME280;42994;51.606;9.988;2023-08-30T09:34:53;98468.66;;;17.44;100.00
57114;BME280;42994;51.606;9.988;2023-08-30T09:37:20;98462.78;;;17.70;100.00
57114;BME280;42994;51.606;9.988;2023-08-30T09:39:48;98437.06;;;16.94;100.00
57114;BME280;42994;51.606;9.988;2023-08-30T09:42:17;98445.25;;;16.99;100.00
57114;BME280;42994;51.606;9.988;2023-08-30T09:44:44;98452.63;;;17.60;100.00
57114;BME280;42994;51.606;9.988;2023-08-30T09:47:12;98428.69;;;17.13;100.00
57114;BME280;42994;51.606;9.988;2023-08-30T09:49:42;98446.75;;;17.68;100.00
57114;BME280;42994;51.606;9.988;2023-08-30T09:52:10;98421.69;;;17.17;100.00
57114;BME280;42994;51.606;9.988;2023-08-30T09:54:37;98421.44;;;17.18;100.00
57114;BME280;42994;51.606;9.988;2023-08-30T09:57:07;98419.63;;;17.24;100.00
57114;BME280;42994;51.606;9.988;2023-08-30T09:59:35;98419.41;;;17.47;100.00
57114;BME280;42994;51.606;9.988;2023-08-30T10:02:03;98413.50;;;17.51;100.00
57114;BME280;42994;51.606;9.988;2023-08-30T10:04:31;98413.09;;;17.42;100.00
57114;BME280;42994;51.606;9.988;2023-08-30T10:06:58;98415.50;;;18.04;100.00
57114;BME280;42994;51.606;9.988;2023-08-30T10:09:25;98412.72;;;17.77;100.00
57114;BME280;42994;51.606;9.988;2023-08-30T10:11:52;98400.84;;;17.61;100.00
57114;BME280;42994;51.606;9.988;2023-08-30T10:14:19;98403.22;;;17.53;100.00
57114;BME280;42994;51.606;9.988;2023-08-30T10:16:48;98397.41;;;17.88;100.00
57114;BME280;42994;51.606;9.988;2023-08-30T10:19:16;98402.34;;;18.18;100.00
57114;BME280;42994;51.606;9.988;2023-08-30T10:21:43;98396.88;;;18.13;100.00
57114;BME280;42994;51.606;9.988;2023-08-30T10:24:12;98386.16;;;17.79;100.00
57114;BME280;42994;51.606;9.988;2023-08-30T10:26:41;98377.75;;;17.54;100.00
57114;BME280;42994;51.606;9.988;2023-08-30T10:29:10;98390.47;;;17.75;100.00
57114;BME280;42994;51.606;9.988;2023-08-30T10:31:37;98394.34;;;18.06;100.00
57114;BME280;42994;51.606;9.988;2023-08-30T10:34:13;98382.03;;;17.94;100.00
57114;BME280;42994;51.606;9.988;2023-08-30T10:36:39;98378.63;;;17.59;100.00
57114;BME280;42994;51.606;9.988;2023-08-30T10:39:11;98382.66;;;17.79;100.00
57114;BME280;42994;51.606;9.988;2023-08-30T10:41:38;98381.16;;;17.88;100.00
57114;BME280;42994;51.606;9.988;2023-08-30T10:44:05;98374.56;;;17.84;100.00
57114;BME280;42994;51.606;9.988;2023-08-30T10:46:34;98374.69;;;17.72;100.00
57114;BME280;42994;51.606;9.988;2023-08-30T10:49:12;98383.16;;;17.76;100.00
57114;BME280;42994;51.606;9.988;2023-08-30T10:51:41;98375.34;;;17.57;100.00
57114;BME280;42994;51.606;9.988;2023-08-30T10:54:12;98386.78;;;18.09;100.00
57114;BME280;42994;51.606;9.988;2023-08-30T10:56:46;98374.91;;;17.88;100.00
57114;BME280;42994;51.606;9.988;2023-08-30T10:59:18;98377.31;;;18.11;100.00
57114;BME280;42994;51.606;9.988;2023-08-30T11:01:45;98369.81;;;17.91;100.00
57114;BME280;42994;51.606;9.988;2023-08-30T11:04:15;98366.31;;;17.96;100.00
57114;BME280;42994;51.606;9.988;2023-08-30T11:06:43;98358.19;;;17.96;100.00
57114;BME280;42994;51.606;9.988;2023-08-30T11:09:10;98369.19;;;18.43;100.00
57114;BME280;42994;51.606;9.988;2023-08-30T11:11:37;98360.38;;;18.63;100.00
57114;BME280;42994;51.606;9.988;2023-08-30T11:14:04;98358.16;;;18.55;100.00
57114;BME280;42994;51.606;9.988;2023-08-30T11:16:31;98348.25;;;18.76;100.00
57114;BME280;42994;51.606;9.988;2023-08-30T11:19:00;98351.88;;;18.82;100.00
57114;BME280;42994;51.606;9.988;2023-08-30T11:21:28;98346.25;;;18.61;100.00
57114;BME280;42994;51.606;9.988;2023-08-30T11:23:55;98355.75;;;18.96;100.00
57114;BME280;42994;51.606;9.988;2023-08-30T11:26:22;98340.78;;;18.51;100.00
57114;BME280;42994;51.606;9.988;2023-08-30T11:28:49;98345.25;;;18.68;100.00
57114;BME280;42994;51.606;9.988;2023-08-30T11:31:18;98339.75;;;18.62;100.00
57114;BME280;42994;51.606;9.988;2023-08-30T11:33:51;98343.22;;;18.53;100.00
57114;BME280;42994;51.606;9.988;2023-08-30T11:36:18;98336.25;;;18.30;100.00
57114;BME280;42994;51.606;9.988;2023-08-30T11:38:46;98333.75;;;18.55;100.00
57114;BME280;42994;51.606;9.988;2023-08-30T11:41:13;98327.63;;;18.38;100.00
57114;BME280;42994;51.606;9.988;2023-08-30T11:43:40;98334.06;;;18.27;100.00
57114;BME280;42994;51.606;9.988;2023-08-30T11:46:07;98322.59;;;18.19;100.00
57114;BME280;42994;51.606;9.988;2023-08-30T11:48:34;98312.88;;;18.23;100.00
57114;BME280;42994;51.606;9.988;2023-08-30T11:51:01;98313.22;;;18.32;100.00
57114;BME280;42994;51.606;9.988;2023-08-30T11:53:28;98315.97;;;18.75;100.00
57114;BME280;42994;51.606;9.988;2023-08-30T11:55:57;98306.59;;;18.55;100.00
57114;BME280;42994;51.606;9.988;2023-08-30T11:58:23;98305.09;;;18.05;100.00
57114;BME280;42994;51.606;9.988;2023-08-30T12:00:51;98298.88;;;18.04;100.00
57114;BME280;42994;51.606;9.988;2023-08-30T12:03:19;98303.59;;;18.52;100.00
57114;BME280;42994;51.606;9.988;2023-08-30T12:05:46;98292.53;;;18.26;100.00
57114;BME280;42994;51.606;9.988;2023-08-30T12:08:19;98292.91;;;18.35;100.00
57114;BME280;42994;51.606;9.988;2023-08-30T12:10:46;98288.03;;;18.37;100.00
57114;BME280;42994;51.606;9.988;2023-08-30T12:13:21;98285.09;;;18.49;100.00
57114;BME280;42994;51.606;9.988;2023-08-30T12:15:48;98287.09;;;18.63;100.00
57114;BME280;42994;51.606;9.988;2023-08-30T12:18:15;98275.59;;;18.46;100.00
57114;BME280;42994;51.606;9.988;2023-08-30T12:20:51;98267.97;;;18.43;100.00
57114;BME280;42994;51.606;9.988;2023-08-30T12:23:23;98274.91;;;18.66;100.00
57114;BME280;42994;51.606;9.988;2023-08-30T12:26:00;98259.69;;;18.22;100.00
57114;BME280;42994;51.606;9.988;2023-08-30T12:28:31;98264.31;;;18.22;100.00
57114;BME280;42994;51.606;9.988;2023-08-30T12:30:59;98268.94;;;18.27;100.00
57114;BME280;42994;51.606;9.988;2023-08-30T12:33:25;98259.78;;;18.38;100.00
57114;BME280;42994;51.606;9.988;2023-08-30T12:35:52;98261.47;;;18.44;100.00
57114;BME280;42994;51.606;9.988;2023-08-30T12:38:19;98263.19;;;18.55;100.00
57114;BME280;42994;51.606;9.988;2023-08-30T12:40:46;98261.84;;;18.63;100.00
57114;BME280;42994;51.606;9.988;2023-08-30T12:43:13;98263.47;;;19.07;100.00
57114;BME280;42994;51.606;9.988;2023-08-30T12:45:41;98252.59;;;19.07;100.00
57114;BME280;42994;51.606;9.988;2023-08-30T12:48:09;98254.81;;;19.15;100.00
57114;BME280;42994;51.606;9.988;2023-08-30T12:50:37;98246.09;;;19.13;100.00
57114;BME280;42994;51.606;9.988;2023-08-30T12:53:04;98250.56;;;19.50;100.00
57114;BME280;42994;51.606;9.988;2023-08-30T12:55:32;98242.38;;;19.39;100.00